Fort Dodge Regional Airport
KFOD : now visible

Aeroporto :











RITROVATECI SU...

 
LOGIN :

Iscrizione | Disclaimer

   EN    FR    IT 

 









Sommario :    VFR   VFR Marginale   IFR   IFR Intensivo   IFR Molto Intensivo
Visibilità : 
Base nubi : 
>= 8 km
>= 3000ft
5 / 8 km
1000 / 3000 ft
1500m / 5 km
500 / 1000 ft
800 / 1500m
200 / 500 ft
< 800m
< 200 ft
Simboli :   Temporali  Nebbia  Neve Forte  Precipitazioni Forti  Vento > 20 kt






- Altitudine del aeroporto : 1156 ft
- Codice IATA : FOD


KFOD - Fort Dodge Regional

ULTIMO METAR :
  • 022156Z AUTO 31004KT 10SM CLR 07/M06 A3033 RMK AO2 SLP314 T00721061

METARs OBSOLETI :
  • 022056Z AUTO 32005KT 10SM CLR 08/M07 A3033 RMK AO2 SLP314 T00781072 56011
  • 021956Z AUTO 29003KT 10SM CLR 07/M08 A3033 RMK AO2 SLP314 T00721083

TAF KFOD
Valido dal 02 a 18 ore il 03 a 18 ore UTC


021731Z 0218/0318 VRB03KT P6SM SKC
FM030900 29006KT P6SM BKN025
FM031100 28006KT P6SM BKN035
FIR KZMP / America del Nord



MetMap, La meteo Aeronautica in un colpo d'occhio ! - Copyright ORBIFLY Dicembre 2007 - Disclaimer

ORBIFLY MET'MAP TEAM :

Programmazione e sviluppo : Alexandra Zaïnal
Concezione : Baudouin d'Aumeries
Aiuto per la programmazione : Marc-Olivier Méhu
Supporto tecnico e logistico : Manuel Goepfert
Aiuto per la traduzione : Arnaldo La Scala

Contatto : metmap@orbifly.com




FONTI E CREDITI :

   NOAA       Earth
Advisory